| time (UTC) | temp F | wind direction | speed MPH | gust MPH | rain 1hr in | rain 24hr in | rain mn in | humidity % | barometer mb |
| 20260831084547 | 75 | 98 | 1.0 | 5.0 | 0.00 | 0.00 | 0.00 | 44 | 1015.1 |
| 20260831083045 | 74 | 111 | 1.0 | 3.0 | 0.00 | 0.00 | 0.00 | 46 | 1015.0 |
| 20260831081547 | 73 | 116 | 1.0 | 6.0 | 0.00 | 0.00 | 0.00 | 47 | 1014.9 |
| 20260831080044 | 72 | 80 | 3.0 | 6.0 | 0.00 | 0.00 | 0.00 | 50 | 1015.0 |
| 20260831074541 | 71 | 83 | 1.0 | 4.0 | 0.00 | 0.00 | 0.00 | 53 | 1014.9 |
| 20260831073040 | 70 | 88 | 1.0 | 2.0 | 0.00 | 0.00 | 0.00 | 54 | 1015.0 |
| 20260831071539 | 68 | 99 | 0.0 | 0.0 | 0.00 | 0.00 | 0.00 | 58 | 1014.9 |
| 20260831070038 | 66 | 99 | 0.0 | 0.0 | 0.00 | 0.00 | 0.00 | 61 | 1014.7 |
| 20260831064538 | 67 | 101 | 0.0 | 0.0 | 0.00 | 0.00 | 0.00 | 62 | 1014.6 |
| 20260831063036 | 66 | 129 | 0.0 | 0.0 | 0.00 | 0.00 | 0.00 | 62 | 1014.7 |
| 20260831061527 | 0 | 0.0 | 0.0 | 0.00 | 0.00 | 0.00 | 1014.6 | ||
| 20260831060021 | 0 | 0.0 | 0.0 | 0.00 | 0.00 | 0.00 | 1014.7 | ||
| 20260831054517 | 0 | 0.0 | 0.0 | 0.00 | 0.00 | 0.00 | 1014.6 | ||
| 20260831053013 | 0 | 0.0 | 0.0 | 0.00 | 0.00 | 0.00 | 1014.5 | ||
| 20260831051521 | 0 | 92 | 0.0 | 0.0 | 0.00 | 0.00 | 0.00 | 1014.5 | |
| 20260831050006 | 63 | 94 | 0.0 | 0.0 | 0.00 | 0.00 | 0.00 | 66 | 1014.4 |
| 20260831044502 | 63 | 94 | 0.0 | 0.0 | 0.00 | 0.00 | 0.00 | 65 | 1014.3 |
| 20260831043001 | 64 | 94 | 0.0 | 1.0 | 0.00 | 0.00 | 0.00 | 64 | 1014.3 |
| 20260831041605 | 63 | 240 | 0.0 | 0.0 | 0.00 | 0.00 | 0.00 | 66 | 1014.2 |
| 20260831040056 | 65 | 240 | 0.0 | 1.0 | 0.00 | 0.00 | 0.00 | 64 | 1014.3 |
| 20260831034554 | 65 | 240 | 0.0 | 0.0 | 0.00 | 0.00 | 0.00 | 64 | 1014.2 |
| 20260831033053 | 66 | 240 | 0.0 | 1.0 | 0.00 | 0.00 | 0.00 | 61 | 1014.2 |
| 20260831031552 | 66 | 245 | 0.0 | 1.0 | 0.00 | 0.00 | 0.00 | 61 | 1014.2 |
| 20260831030108 | 66 | 247 | 0.0 | 1.0 | 0.00 | 0.00 | 0.00 | 60 | 1014.1 |
| 20260831024616 | 65 | 270 | 0.0 | 0.0 | 0.00 | 0.00 | 0.00 | 61 | 1014.0 |
| 20260831023049 | 65 | 270 | 0.0 | 0.0 | 0.00 | 0.00 | 0.00 | 60 | 1013.9 |
| 20260831021547 | 67 | 260 | 0.0 | 1.0 | 0.00 | 0.00 | 0.00 | 60 | 1013.9 |
| 20260831020046 | 67 | 255 | 1.0 | 3.0 | 0.00 | 0.00 | 0.00 | 60 | 1013.9 |
| 20260831014545 | 65 | 236 | 0.0 | 0.0 | 0.00 | 0.00 | 0.00 | 62 | 1014.0 |
| 20260831013059 | 65 | 236 | 0.0 | 0.0 | 0.00 | 0.00 | 0.00 | 62 | 1013.9 |
| 20260831011540 | 66 | 236 | 0.0 | 0.0 | 0.00 | 0.00 | 0.00 | 61 | 1013.9 |
| 20260831010038 | 67 | 236 | 0.0 | 0.0 | 0.00 | 0.00 | 0.00 | 59 | 1014.0 |
| 20260831004537 | 67 | 179 | 0.0 | 1.0 | 0.00 | 0.00 | 0.00 | 59 | 1014.1 |
| 20260831003032 | 69 | 116 | 0.0 | 1.0 | 0.00 | 0.00 | 0.00 | 58 | 1014.0 |
| 20260831001529 | 69 | 116 | 0.0 | 1.0 | 0.00 | 0.00 | 0.00 | 58 | 1013.8 |
| 20260831000029 | 69 | 13 | 0.0 | 0.0 | 0.00 | 0.00 | 0.00 | 59 | 1013.8 |
| 20260830234526 | 69 | 13 | 0.0 | 0.0 | 0.00 | 0.00 | 0.00 | 59 | 1013.8 |
| 20260830233025 | 70 | 300 | 0.0 | 0.0 | 0.00 | 0.00 | 0.00 | 58 | 1013.7 |
| 20260830231531 | 70 | 300 | 0.0 | 1.0 | 0.00 | 0.00 | 0.00 | 57 | 1013.6 |
| 20260830230024 | 70 | 300 | 0.0 | 0.0 | 0.00 | 0.00 | 0.00 | 58 | 1013.6 |
| 20260830224519 | 71 | 300 | 0.0 | 0.0 | 0.00 | 0.00 | 0.00 | 56 | 1013.4 |
| 20260830223016 | 73 | 264 | 0.0 | 1.0 | 0.00 | 0.00 | 0.00 | 54 | 1013.4 |
| 20260830221523 | 74 | 270 | 0.0 | 0.0 | 0.00 | 0.00 | 0.00 | 51 | 1013.3 |
| 20260830220010 | 74 | 270 | 0.0 | 2.0 | 0.00 | 0.00 | 0.00 | 51 | 1013.3 |
| 20260830214509 | 75 | 236 | 0.0 | 0.0 | 0.00 | 0.00 | 0.00 | 52 | 1013.3 |
| 20260830213008 | 76 | 236 | 0.0 | 0.0 | 0.00 | 0.00 | 0.00 | 49 | 1013.3 |
| 20260830211508 | 76 | 238 | 0.0 | 1.0 | 0.00 | 0.00 | 0.00 | 50 | 1013.2 |
| 20260830210007 | 76 | 98 | 0.0 | 1.0 | 0.00 | 0.00 | 0.00 | 49 | 1013.0 |
| 20260830204509 | 77 | 98 | 0.0 | 2.0 | 0.00 | 0.00 | 0.00 | 48 | 1012.9 |
| 20260830203020 | 78 | 276 | 0.0 | 1.0 | 0.00 | 0.00 | 0.00 | 47 | 1012.8 |
| 20260830201506 | 79 | 277 | 0.0 | 1.0 | 0.00 | 0.00 | 0.00 | 46 | 1012.8 |
| 20260830200005 | 80 | 269 | 0.0 | 4.0 | 0.00 | 0.00 | 0.00 | 45 | 1012.5 |
| 20260830194506 | 80 | 296 | 1.0 | 4.0 | 0.00 | 0.00 | 0.00 | 43 | 1012.3 |
| 20260830193004 | 81 | 285 | 0.0 | 4.0 | 0.00 | 0.00 | 0.00 | 40 | 1012.0 |
| 20260830191504 | 82 | 282 | 0.0 | 3.0 | 0.00 | 0.00 | 0.00 | 38 | 1011.9 |
| 20260830190007 | 83 | 221 | 1.0 | 6.0 | 0.00 | 0.00 | 0.00 | 36 | 1011.8 |
| 20260830184501 | 84 | 262 | 2.0 | 8.0 | 0.00 | 0.00 | 0.00 | 33 | 1011.7 |
| 20260830183001 | 85 | 258 | 2.0 | 8.0 | 0.00 | 0.00 | 0.00 | 31 | 1011.5 |
| 20260830181620 | 87 | 146 | 2.0 | 9.0 | 0.00 | 0.00 | 0.00 | 31 | 1011.5 |
| 20260830180104 | 87 | 164 | 2.0 | 11.0 | 0.00 | 0.00 | 0.00 | 30 | 1011.4 |
| 20260830180000 | 87 | 271 | 2.0 | 11.0 | 0.00 | 0.00 | 0.00 | 30 | 1011.4 |
| 20260830174608 | 88 | 241 | 2.0 | 10.0 | 0.00 | 0.00 | 0.00 | 30 | 1011.4 |
| 20260830173110 | 88 | 258 | 2.0 | 16.0 | 0.00 | 0.00 | 0.00 | 29 | 1011.4 |
| 20260830171600 | 89 | 224 | 1.0 | 10.0 | 0.00 | 0.00 | 0.00 | 29 | 1011.4 |
| 20260830170055 | 89 | 255 | 3.0 | 10.0 | 0.00 | 0.00 | 0.00 | 29 | 1011.4 |
| 20260830164612 | 89 | 278 | 2.0 | 12.0 | 0.00 | 0.00 | 0.00 | 29 | 1011.4 |
| 20260830163107 | 89 | 281 | 5.0 | 12.0 | 0.00 | 0.00 | 0.00 | 29 | 1011.3 |
| 20260830161553 | 89 | 240 | 4.0 | 12.0 | 0.00 | 0.00 | 0.00 | 29 | 1011.3 |
| 20260830160051 | 89 | 242 | 4.0 | 11.0 | 0.00 | 0.00 | 0.00 | 29 | 1011.4 |
| 20260830154553 | 90 | 210 | 4.0 | 15.0 | 0.00 | 0.00 | 0.00 | 29 | 1011.4 |
| 20260830153047 | 90 | 278 | 3.0 | 8.0 | 0.00 | 0.00 | 0.00 | 29 | 1011.4 |
| 20260830151547 | 89 | 98 | 2.0 | 12.0 | 0.00 | 0.00 | 0.00 | 30 | 1011.7 |
| 20260830150044 | 89 | 288 | 3.0 | 12.0 | 0.00 | 0.00 | 0.00 | 31 | 1011.8 |
| 20260830144552 | 89 | 236 | 2.0 | 8.0 | 0.00 | 0.00 | 0.00 | 30 | 1011.8 |
| 20260830143038 | 89 | 274 | 4.0 | 10.0 | 0.00 | 0.00 | 0.00 | 31 | 1012.1 |
| 20260830141535 | 88 | 158 | 3.0 | 15.0 | 0.00 | 0.00 | 0.00 | 31 | 1012.2 |
| 20260830140037 | 88 | 328 | 5.0 | 15.0 | 0.00 | 0.00 | 0.00 | 31 | 1012.4 |
| 20260830134532 | 88 | 309 | 4.0 | 12.0 | 0.00 | 0.00 | 0.00 | 31 | 1012.7 |
| 20260830133029 | 87 | 264 | 7.0 | 14.0 | 0.00 | 0.00 | 0.00 | 31 | 1012.6 |
| 20260830131526 | 87 | 228 | 3.0 | 10.0 | 0.00 | 0.00 | 0.00 | 33 | 1012.9 |
| 20260830130025 | 87 | 202 | 2.0 | 11.0 | 0.00 | 0.00 | 0.00 | 34 | 1013.1 |
| 20260830124522 | 85 | 265 | 4.0 | 13.0 | 0.00 | 0.00 | 0.00 | 34 | 1013.2 |
| 20260830123018 | 85 | 302 | 6.0 | 12.0 | 0.00 | 0.00 | 0.00 | 34 | 1013.4 |
| 20260830121517 | 84 | 263 | 5.0 | 14.0 | 0.00 | 0.00 | 0.00 | 35 | 1013.5 |
| 20260830120013 | 84 | 339 | 1.0 | 13.0 | 0.00 | 0.00 | 0.00 | 35 | 1013.6 |
| 20260830114512 | 83 | 167 | 3.0 | 8.0 | 0.00 | 0.00 | 0.00 | 36 | 1013.7 |
| 20260830111504 | 82 | 291 | 3.0 | 11.0 | 0.00 | 0.00 | 0.00 | 36 | 1014.1 |
| 20260830110003 | 82 | 252 | 3.0 | 8.0 | 0.00 | 0.00 | 0.00 | 34 | 1014.2 |
| 20260830104603 | 82 | 188 | 4.0 | 9.0 | 0.00 | 0.00 | 0.00 | 35 | 1014.4 |
| 20260830103058 | 80 | 281 | 1.0 | 7.0 | 0.00 | 0.00 | 0.00 | 35 | 1014.5 |
| 20260830101559 | 80 | 115 | 0.0 | 3.0 | 0.00 | 0.00 | 0.00 | 36 | 1014.5 |
| 20260830100056 | 78 | 264 | 0.0 | 4.0 | 0.00 | 0.00 | 0.00 | 36 | 1014.4 |
| 20260830094555 | 76 | 124 | 3.0 | 7.0 | 0.00 | 0.00 | 0.00 | 38 | 1014.4 |
| 20260830093046 | 75 | 135 | 2.0 | 6.0 | 0.00 | 0.00 | 0.00 | 38 | 1014.5 |
| 20260830091542 | 74 | 149 | 1.0 | 4.0 | 0.00 | 0.00 | 0.00 | 41 | 1014.6 |
| 20260830090044 | 73 | 115 | 1.0 | 4.0 | 0.00 | 0.00 | 0.00 | 42 | 1014.7 |